This is the latest recevied weather packets stored in our database for station/object AC0YE. If no packets are shown the sender has not sent any weather packets the latest 10 day(s).
| Time | Temp. | Humidity | Pressure | Rain* | Wind** | Luminosity | Snow |
|---|---|---|---|---|---|---|---|
| 1777646417 | 8.33° C | 65% | 1018.1 hPa | 0 mm | - | - | - |
| 1777644637 | 8.89° C | 64% | 1018.1 hPa | 0 mm | - | - | - |
| 1777640416 | 6.67° C | 70% | 1017.9 hPa | 0 mm | - | - | - |
| 1777640116 | 6.67° C | 70% | 1017.9 hPa | 0 mm | - | - | - |
| 1777639256 | 6.11° C | 73% | 1017.9 hPa | 0 mm | - | - | - |
| 1777635656 | 5° C | 74% | 1017.8 hPa | 0 mm | - | - | - |
| 1777632617 | 4.44° C | 76% | 1017.7 hPa | 0 mm | - | - | - |
| 1777628716 | 4.44° C | 75% | 1017.8 hPa | 0 mm | - | - | - |
| 1777627836 | 3.89° C | 75% | 1017.6 hPa | 0 mm | - | - | - |
| 1777627516 | 3.89° C | 75% | 1017.6 hPa | 0 mm | - | - | - |
| 1777624216 | 3.89° C | 74% | 1017.5 hPa | 0 mm | - | - | - |
| 1777623616 | 3.33° C | 75% | 1017.5 hPa | 0 mm | - | - | - |
| 1777621816 | 2.78° C | 76% | 1017.4 hPa | 0 mm | - | - | - |
| 1777621516 | 2.78° C | 76% | 1017.2 hPa | 0 mm | - | - | - |
| 1777621216 | 2.78° C | 77% | 1017.3 hPa | 0 mm | - | - | - |
| 1777620316 | 2.78° C | 77% | 1017.3 hPa | 0 mm | - | - | - |
| 1777618836 | 3.33° C | 75% | 1017.3 hPa | 0 mm | - | - | - |
| 1777618536 | 2.78° C | 75% | 1017.2 hPa | 0 mm | - | - | - |
| 1777618216 | 2.78° C | 75% | 1017.2 hPa | 0 mm | - | - | - |
| 1777617916 | 3.33° C | 75% | 1017.3 hPa | 0 mm | - | - | - |
| 1777617316 | 3.33° C | 74% | 1017.4 hPa | 0 mm | - | - | - |
| 1777616716 | 3.33° C | 74% | 1017.4 hPa | 0 mm | - | - | - |
| 1777615216 | 3.89° C | 73% | 1017.5 hPa | 0 mm | - | - | - |
| 1777613716 | 3.89° C | 71% | 1017.2 hPa | 0 mm | - | - | - |
| 1777612816 | 4.44° C | 71% | 1017 hPa | 0 mm | - | - | - |
* Rain latest hour (hover to see other rain measurements)
** Current wind speed in m/s (hover to see current wind gust speed)